createdAt,value
2019-03-09T00:00:21.834Z,27.00
2019-03-09T00:01:21.803Z,27.00
2019-03-09T00:02:21.759Z,26.93
2019-03-09T00:03:21.716Z,26.96
2019-03-09T00:04:21.662Z,27.00
2019-03-09T00:05:21.614Z,26.93
2019-03-09T00:06:21.571Z,26.93
2019-03-09T00:07:21.538Z,27.00
2019-03-09T00:08:21.482Z,26.92
2019-03-09T00:09:21.457Z,26.89
2019-03-09T00:10:21.395Z,26.95
2019-03-09T00:11:21.342Z,26.95
2019-03-09T00:12:21.319Z,26.83
2019-03-09T00:13:21.269Z,26.85
2019-03-09T00:14:21.226Z,26.90
2019-03-09T00:15:21.175Z,26.90
2019-03-09T00:16:21.122Z,26.85
2019-03-09T00:17:21.087Z,26.85
2019-03-09T00:18:21.034Z,26.89
2019-03-09T00:19:20.998Z,26.84
2019-03-09T00:20:20.946Z,26.75
2019-03-09T00:21:20.923Z,26.78
2019-03-09T00:22:20.870Z,26.73
2019-03-09T00:23:20.828Z,26.75
2019-03-09T00:24:20.782Z,26.80
2019-03-09T00:25:20.738Z,26.70
2019-03-09T00:26:20.689Z,26.78
2019-03-09T00:27:29.406Z,26.83
2019-03-09T00:28:20.592Z,26.80
2019-03-09T00:29:20.549Z,26.81
2019-03-09T00:30:20.517Z,26.78
2019-03-09T00:31:20.472Z,26.71
2019-03-09T00:32:20.432Z,26.75
2019-03-09T00:33:20.372Z,26.63
2019-03-09T00:34:20.331Z,26.63
2019-03-09T00:35:20.305Z,26.51
2019-03-09T00:36:20.248Z,26.53
2019-03-09T00:37:20.209Z,26.55
2019-03-09T00:38:20.173Z,26.56
2019-03-09T00:39:20.115Z,26.59
2019-03-09T00:40:20.063Z,26.53
2019-03-09T00:41:20.040Z,26.45
2019-03-09T00:42:19.987Z,26.58
2019-03-09T00:43:19.939Z,26.48
2019-03-09T00:44:19.899Z,26.48
2019-03-09T00:45:19.863Z,26.55
2019-03-09T00:46:19.820Z,26.52
2019-03-09T00:47:19.756Z,26.51
2019-03-09T00:48:19.731Z,26.52
2019-03-09T00:49:19.677Z,26.51
2019-03-09T00:50:19.642Z,26.55
2019-03-09T00:51:19.599Z,26.51
2019-03-09T00:52:19.547Z,26.51
2019-03-09T00:53:19.526Z,26.52
2019-03-09T00:54:19.443Z,26.53
2019-03-09T00:55:19.399Z,26.45
2019-03-09T00:56:19.368Z,26.47
2019-03-09T00:57:19.311Z,26.51
2019-03-09T00:58:19.267Z,26.44
2019-03-09T00:59:19.222Z,26.47
2019-03-09T01:00:19.180Z,26.44
2019-03-09T01:01:19.137Z,26.44
2019-03-09T01:02:19.098Z,26.38
2019-03-09T01:03:19.061Z,26.40
2019-03-09T01:04:19.015Z,26.41
2019-03-09T01:05:18.965Z,26.37
2019-03-09T01:06:18.920Z,26.38
2019-03-09T01:07:18.889Z,26.28
2019-03-09T01:08:18.836Z,26.37
2019-03-09T01:09:18.802Z,26.34
2019-03-09T01:10:18.756Z,26.28
2019-03-09T01:11:18.699Z,26.29
2019-03-09T01:12:18.659Z,26.34
2019-03-09T01:13:18.616Z,26.33
2019-03-09T01:14:18.579Z,26.33
2019-03-09T01:15:18.533Z,26.26
2019-03-09T01:16:18.478Z,26.29
2019-03-09T01:17:18.424Z,26.33
2019-03-09T01:18:18.380Z,26.25
2019-03-09T01:19:18.359Z,26.07
2019-03-09T01:20:18.305Z,26.13
2019-03-09T01:21:18.268Z,26.06
2019-03-09T01:22:18.215Z,26.09
2019-03-09T01:23:18.181Z,26.06
2019-03-09T01:24:18.113Z,26.09
2019-03-09T01:25:18.077Z,26.15
2019-03-09T01:26:18.046Z,26.13
2019-03-09T01:27:17.988Z,26.09
2019-03-09T01:28:17.937Z,26.18
2019-03-09T01:29:17.913Z,26.16
2019-03-09T01:30:17.848Z,26.06
2019-03-09T01:31:17.802Z,26.03
2019-03-09T01:32:17.767Z,26.07
2019-03-09T01:33:17.714Z,26.05
2019-03-09T01:34:17.678Z,26.10
2019-03-09T01:35:17.646Z,25.99
2019-03-09T01:36:17.593Z,25.95
2019-03-09T01:37:17.537Z,25.83
2019-03-09T01:38:17.512Z,25.75
2019-03-09T01:39:17.467Z,25.77
2019-03-09T01:40:17.415Z,25.78
2019-03-09T01:41:17.366Z,25.85
2019-03-09T01:42:17.327Z,25.81
2019-03-09T01:43:17.281Z,25.87
2019-03-09T01:44:17.234Z,25.90
2019-03-09T01:45:17.190Z,25.87
2019-03-09T01:46:17.149Z,25.77
2019-03-09T01:47:17.106Z,25.78
2019-03-09T01:48:17.047Z,25.83
2019-03-09T01:49:17.004Z,25.91
2019-03-09T01:50:16.960Z,25.84
2019-03-09T01:51:16.941Z,25.85
2019-03-09T01:52:16.881Z,25.88
2019-03-09T01:53:16.824Z,25.85
2019-03-09T01:54:16.794Z,25.80
2019-03-09T01:55:16.774Z,25.87
2019-03-09T01:56:16.698Z,25.90
2019-03-09T01:57:16.666Z,25.81
2019-03-09T01:58:16.600Z,25.88
2019-03-09T01:59:16.555Z,25.81
2019-03-09T02:00:16.511Z,25.81
2019-03-09T02:01:16.488Z,25.84
2019-03-09T02:02:16.445Z,25.80
2019-03-09T02:03:16.381Z,25.68
2019-03-09T02:04:16.348Z,25.75
2019-03-09T02:05:21.170Z,25.81
2019-03-09T02:06:16.265Z,25.78
2019-03-09T02:07:16.199Z,25.75
2019-03-09T02:08:16.154Z,25.84
2019-03-09T02:09:16.119Z,25.77
2019-03-09T02:10:16.079Z,25.73
2019-03-09T02:11:16.030Z,25.84
2019-03-09T02:12:15.984Z,25.80
2019-03-09T02:13:15.953Z,25.73
2019-03-09T02:14:15.900Z,25.69
2019-03-09T02:15:16.054Z,25.62
2019-03-09T02:16:15.806Z,25.58
2019-03-09T02:17:15.791Z,25.51
2019-03-09T02:18:15.717Z,25.48
2019-03-09T02:19:15.678Z,25.48
2019-03-09T02:20:15.632Z,25.65
2019-03-09T02:21:15.588Z,25.62
2019-03-09T02:22:15.551Z,25.59
2019-03-09T02:23:15.486Z,25.66
2019-03-09T02:24:15.453Z,25.62
2019-03-09T02:25:15.449Z,25.59
2019-03-09T02:26:15.360Z,25.62
2019-03-09T02:27:15.329Z,25.63
2019-03-09T02:28:15.284Z,25.48
2019-03-09T02:29:15.239Z,25.54
2019-03-09T02:30:15.189Z,25.54
2019-03-09T02:31:15.150Z,25.43
2019-03-09T02:32:15.097Z,25.51
2019-03-09T02:33:15.047Z,25.43
2019-03-09T02:34:14.994Z,25.51
2019-03-09T02:35:14.971Z,25.50
2019-03-09T02:36:14.907Z,25.47
2019-03-09T02:37:14.868Z,25.46
2019-03-09T02:38:14.828Z,25.51
2019-03-09T02:39:14.771Z,25.50
2019-03-09T02:40:14.727Z,25.55
2019-03-09T02:41:14.694Z,25.53
2019-03-09T02:42:14.636Z,25.51
2019-03-09T02:43:14.613Z,25.66
2019-03-09T02:44:14.546Z,25.51
2019-03-09T02:45:14.515Z,25.51
2019-03-09T02:46:14.471Z,25.50
2019-03-09T02:47:14.413Z,25.50
2019-03-09T02:48:14.381Z,25.50
2019-03-09T02:49:14.337Z,25.46
2019-03-09T02:50:14.308Z,25.40
2019-03-09T02:51:14.247Z,25.43
2019-03-09T02:52:14.202Z,25.36
2019-03-09T02:53:14.155Z,25.44
2019-03-09T02:54:14.123Z,25.35
2019-03-09T02:55:14.064Z,25.40
2019-03-09T02:56:14.020Z,25.41
2019-03-09T02:57:13.977Z,25.44
2019-03-09T02:58:13.932Z,25.46
2019-03-09T02:59:13.887Z,25.43
2019-03-09T03:00:13.852Z,25.48
2019-03-09T03:01:13.793Z,25.47
2019-03-09T03:02:13.754Z,25.44
2019-03-09T03:03:13.718Z,25.44
2019-03-09T03:04:13.651Z,25.48
2019-03-09T03:05:13.628Z,25.38
2019-03-09T03:06:13.574Z,25.38
2019-03-09T03:07:13.530Z,25.32
2019-03-09T03:08:13.475Z,25.35
2019-03-09T03:09:13.462Z,25.29
2019-03-09T03:10:13.396Z,25.32
2019-03-09T03:11:13.346Z,25.31
2019-03-09T03:12:13.312Z,25.29
2019-03-09T03:13:13.258Z,25.29
2019-03-09T03:14:13.206Z,25.31
2019-03-09T03:15:13.189Z,25.33
2019-03-09T03:16:13.126Z,25.31
2019-03-09T03:17:13.078Z,25.31
2019-03-09T03:18:13.038Z,25.33
2019-03-09T03:19:12.987Z,25.31
2019-03-09T03:20:12.949Z,25.32
2019-03-09T03:21:12.897Z,25.32
2019-03-09T03:22:12.869Z,25.25
2019-03-09T03:23:12.821Z,25.25
2019-03-09T03:24:12.796Z,25.26
2019-03-09T03:25:12.715Z,25.16
2019-03-09T03:26:12.666Z,25.16
2019-03-09T03:27:12.634Z,25.10
2019-03-09T03:28:12.598Z,24.96
2019-03-09T03:29:12.543Z,24.98
2019-03-09T03:30:12.709Z,25.07
2019-03-09T03:31:12.450Z,25.07
2019-03-09T03:32:12.418Z,25.14
2019-03-09T03:33:12.365Z,25.13
2019-03-09T03:34:12.337Z,25.14
2019-03-09T03:35:12.277Z,25.14
2019-03-09T03:36:12.231Z,25.11
2019-03-09T03:37:12.181Z,25.21
2019-03-09T03:38:12.149Z,25.13
2019-03-09T03:39:12.090Z,25.25
2019-03-09T03:40:12.064Z,25.13
2019-03-09T03:41:12.007Z,25.11
2019-03-09T03:42:11.947Z,25.14
2019-03-09T03:43:11.924Z,25.21
2019-03-09T03:44:11.870Z,25.17
2019-03-09T03:45:11.822Z,25.11
2019-03-09T03:46:11.781Z,25.17
2019-03-09T03:47:11.723Z,25.14
2019-03-09T03:48:11.687Z,25.14
2019-03-09T03:49:11.632Z,25.14
2019-03-09T03:50:11.610Z,25.22
2019-03-09T03:51:11.551Z,25.23
2019-03-09T03:52:11.511Z,25.21
2019-03-09T03:53:11.454Z,25.14
2019-03-09T03:54:11.413Z,25.16
2019-03-09T03:55:11.387Z,25.13
2019-03-09T03:56:11.330Z,25.04
2019-03-09T03:57:11.306Z,24.99
2019-03-09T03:58:11.233Z,25.06
2019-03-09T03:59:11.214Z,24.91
2019-03-09T04:00:11.172Z,24.99
2019-03-09T04:01:11.116Z,24.91
2019-03-09T04:02:11.079Z,24.91
2019-03-09T04:03:11.012Z,25.06
2019-03-09T04:04:10.973Z,25.03
2019-03-09T04:05:10.920Z,24.99
2019-03-09T04:06:10.884Z,24.99
2019-03-09T04:07:10.838Z,24.96
2019-03-09T04:08:10.793Z,24.89
2019-03-09T04:09:10.734Z,24.85
2019-03-09T04:10:10.693Z,24.78
2019-03-09T04:11:10.665Z,24.80
2019-03-09T04:12:10.610Z,24.78
2019-03-09T04:13:10.574Z,24.81
2019-03-09T04:14:10.522Z,24.84
2019-03-09T04:15:10.475Z,24.80
2019-03-09T04:16:10.427Z,24.81
2019-03-09T04:17:10.387Z,24.77
2019-03-09T04:18:10.343Z,24.86
2019-03-09T04:19:10.298Z,24.78
2019-03-09T04:20:10.251Z,24.70
2019-03-09T04:21:10.207Z,24.80
2019-03-09T04:22:10.162Z,24.73
2019-03-09T04:23:10.104Z,24.80
2019-03-09T04:24:10.079Z,24.74
2019-03-09T04:25:10.095Z,24.73
2019-03-09T04:26:09.990Z,24.65
2019-03-09T04:27:09.978Z,24.78
2019-03-09T04:28:09.901Z,24.63
2019-03-09T04:29:09.854Z,24.70
2019-03-09T04:30:09.797Z,24.74
2019-03-09T04:31:09.744Z,24.61
2019-03-09T04:32:09.713Z,24.66
2019-03-09T04:33:09.670Z,24.70
2019-03-09T04:34:09.621Z,24.73
2019-03-09T04:35:09.595Z,24.70
2019-03-09T04:36:09.527Z,24.78
2019-03-09T04:37:09.474Z,24.73
2019-03-09T04:38:09.440Z,24.70
2019-03-09T04:39:09.405Z,24.70
2019-03-09T04:40:09.362Z,24.74
2019-03-09T04:41:09.305Z,24.70
2019-03-09T04:42:09.268Z,24.70
2019-03-09T04:43:09.214Z,24.74
2019-03-09T04:44:09.169Z,24.76
2019-03-09T04:45:09.111Z,24.74
2019-03-09T04:46:09.075Z,24.78
2019-03-09T04:47:09.030Z,24.69
2019-03-09T04:48:08.997Z,24.73
2019-03-09T04:49:08.939Z,24.73
2019-03-09T04:50:08.887Z,24.70
2019-03-09T04:51:08.854Z,24.69
2019-03-09T04:52:08.817Z,24.88
2019-03-09T04:53:08.763Z,24.73
2019-03-09T04:54:08.705Z,24.80
2019-03-09T04:55:08.669Z,24.81
2019-03-09T04:56:08.615Z,24.78
2019-03-09T04:57:08.582Z,24.81
2019-03-09T04:58:08.546Z,24.89
2019-03-09T04:59:08.501Z,24.88
2019-03-09T05:00:08.436Z,24.88
2019-03-09T05:01:08.411Z,24.89
2019-03-09T05:02:08.348Z,24.88
2019-03-09T05:03:08.312Z,24.85
2019-03-09T05:04:08.270Z,24.85
2019-03-09T05:05:08.218Z,24.92
2019-03-09T05:06:08.173Z,24.92
2019-03-09T05:07:08.140Z,24.85
2019-03-09T05:08:08.080Z,24.91
2019-03-09T05:09:08.038Z,24.88
2019-03-09T05:10:07.992Z,24.77
2019-03-09T05:11:07.952Z,24.77
2019-03-09T05:12:07.902Z,24.86
2019-03-09T05:13:07.870Z,24.76
2019-03-09T05:14:07.813Z,24.80
2019-03-09T05:15:07.783Z,24.74
2019-03-09T05:16:07.735Z,24.76
2019-03-09T05:17:07.690Z,24.77
2019-03-09T05:18:07.645Z,24.78
2019-03-09T05:19:07.602Z,24.77
2019-03-09T05:20:07.556Z,24.74
2019-03-09T05:21:07.497Z,24.74
2019-03-09T05:22:07.458Z,24.85
2019-03-09T05:23:07.407Z,24.81
2019-03-09T05:24:07.312Z,24.86
2019-03-09T05:25:07.321Z,24.81
2019-03-09T05:26:07.284Z,24.74
2019-03-09T05:27:07.219Z,24.78
2019-03-09T05:28:07.194Z,24.78
2019-03-09T05:29:07.136Z,24.84
2019-03-09T05:30:07.109Z,24.84
2019-03-09T05:31:07.046Z,24.81
2019-03-09T05:32:07.014Z,24.80
2019-03-09T05:33:06.968Z,24.78
2019-03-09T05:34:06.915Z,24.70
2019-03-09T05:35:06.871Z,24.78
2019-03-09T05:36:06.812Z,24.63
2019-03-09T05:37:06.791Z,24.70
2019-03-09T05:38:06.721Z,24.66
2019-03-09T05:39:06.676Z,24.58
2019-03-09T05:40:06.632Z,24.58
2019-03-09T05:41:06.595Z,24.53
2019-03-09T05:42:06.541Z,24.47
2019-03-09T05:43:06.520Z,24.45
2019-03-09T05:44:06.464Z,24.45
2019-03-09T05:45:06.417Z,24.42
2019-03-09T05:46:06.369Z,24.39
2019-03-09T05:47:06.316Z,24.42
2019-03-09T05:48:06.279Z,24.45
2019-03-09T05:49:06.226Z,24.36
2019-03-09T05:50:06.186Z,24.39
2019-03-09T05:51:06.145Z,24.42
2019-03-09T05:52:06.103Z,24.45
2019-03-09T05:53:06.057Z,24.45
2019-03-09T05:54:05.999Z,24.43
2019-03-09T05:55:05.964Z,24.50
2019-03-09T05:56:07.805Z,24.61
2019-03-09T05:57:05.873Z,24.57
2019-03-09T05:58:05.819Z,24.58
2019-03-09T05:59:05.795Z,24.69
2019-03-09T06:00:05.748Z,24.65
2019-03-09T06:01:05.691Z,24.66
2019-03-09T06:02:05.646Z,24.57
2019-03-09T06:03:05.593Z,24.58
2019-03-09T06:04:05.547Z,24.58
2019-03-09T06:05:05.523Z,24.66
2019-03-09T06:06:05.466Z,24.54
2019-03-09T06:07:05.420Z,24.65
2019-03-09T06:08:05.390Z,24.57
2019-03-09T06:09:05.321Z,24.57
2019-03-09T06:10:05.276Z,24.57
2019-03-09T06:11:05.244Z,24.54
2019-03-09T06:12:05.186Z,24.57
2019-03-09T06:13:05.162Z,24.47
2019-03-09T06:14:05.099Z,24.63
2019-03-09T06:15:05.051Z,24.65
2019-03-09T06:16:05.027Z,24.61
2019-03-09T06:17:04.985Z,24.63
2019-03-09T06:18:06.412Z,24.76
2019-03-09T06:19:04.878Z,24.60
2019-03-09T06:20:04.840Z,24.63
2019-03-09T06:21:04.788Z,24.63
2019-03-09T06:22:04.745Z,24.61
2019-03-09T06:23:04.690Z,24.73
2019-03-09T06:24:04.657Z,24.69
2019-03-09T06:25:04.607Z,24.84
2019-03-09T06:26:04.556Z,24.70
2019-03-09T06:27:04.513Z,24.78
2019-03-09T06:28:04.485Z,24.73
2019-03-09T06:29:04.419Z,24.73
2019-03-09T06:30:04.381Z,24.73
2019-03-09T06:31:04.341Z,24.74
2019-03-09T06:32:04.282Z,24.73
2019-03-09T06:33:04.251Z,24.69
2019-03-09T06:34:04.204Z,24.68
2019-03-09T06:35:04.150Z,24.58
2019-03-09T06:36:04.113Z,24.60
2019-03-09T06:37:04.079Z,24.58
2019-03-09T06:38:04.026Z,24.47
2019-03-09T06:39:03.980Z,24.54
2019-03-09T06:40:04.124Z,24.47
2019-03-09T06:41:03.879Z,24.47
2019-03-09T06:42:03.831Z,24.53
2019-03-09T06:43:03.808Z,24.48
2019-03-09T06:44:03.743Z,24.54
2019-03-09T06:45:03.696Z,24.53
2019-03-09T06:46:03.654Z,24.47
2019-03-09T06:47:03.605Z,24.45
2019-03-09T06:48:03.584Z,24.42
2019-03-09T06:49:03.531Z,24.45
2019-03-09T06:50:03.485Z,24.50
2019-03-09T06:51:03.446Z,24.40
2019-03-09T06:52:03.379Z,24.40
2019-03-09T06:53:03.370Z,24.42
2019-03-09T06:54:03.308Z,24.42
2019-03-09T06:55:03.253Z,24.39
2019-03-09T06:56:03.208Z,24.48
2019-03-09T06:57:03.166Z,24.42
2019-03-09T06:58:03.118Z,24.57
2019-03-09T06:59:03.075Z,24.45
2019-03-09T07:00:03.031Z,24.60
2019-03-09T07:01:02.981Z,24.51
2019-03-09T07:02:02.949Z,24.55
2019-03-09T07:03:02.900Z,24.65
2019-03-09T07:04:02.838Z,24.57
2019-03-09T07:05:02.801Z,24.61
2019-03-09T07:06:02.769Z,24.69
2019-03-09T07:07:02.715Z,24.65
2019-03-09T07:08:02.670Z,24.58
2019-03-09T07:09:02.626Z,24.58
2019-03-09T07:10:02.578Z,24.58
2019-03-09T07:11:02.532Z,24.57
2019-03-09T07:12:02.477Z,24.51
2019-03-09T07:13:02.454Z,24.50
2019-03-09T07:14:02.398Z,24.48
2019-03-09T07:15:02.362Z,24.42
2019-03-09T07:16:02.295Z,24.40
2019-03-09T07:17:02.273Z,24.45
2019-03-09T07:18:02.218Z,24.36
2019-03-09T07:19:02.181Z,24.36
2019-03-09T07:20:11.925Z,24.40
2019-03-09T07:21:02.091Z,24.33
2019-03-09T07:22:02.026Z,24.38
2019-03-09T07:23:01.992Z,24.42
2019-03-09T07:24:01.933Z,24.50
2019-03-09T07:25:01.911Z,24.42
2019-03-09T07:26:01.852Z,24.48
2019-03-09T07:27:01.805Z,24.45
2019-03-09T07:28:01.757Z,24.42
2019-03-09T07:29:01.710Z,24.40
2019-03-09T07:30:01.665Z,24.36
2019-03-09T07:31:01.638Z,24.45
2019-03-09T07:32:01.581Z,24.33
2019-03-09T07:33:01.535Z,24.17
2019-03-09T07:34:01.490Z,24.16
2019-03-09T07:35:01.459Z,24.18
2019-03-09T07:36:01.392Z,24.17
2019-03-09T07:37:01.351Z,24.14
2019-03-09T07:38:01.302Z,24.18
2019-03-09T07:39:01.276Z,24.20
2019-03-09T07:40:01.222Z,24.17
2019-03-09T07:41:01.172Z,24.23
2019-03-09T07:42:01.127Z,24.24
2019-03-09T07:43:01.074Z,24.21
2019-03-09T07:44:01.028Z,24.32
2019-03-09T07:45:01.005Z,24.29
2019-03-09T07:46:00.960Z,24.36
2019-03-09T07:47:00.901Z,24.20
2019-03-09T07:48:00.860Z,24.18
2019-03-09T07:49:00.823Z,24.28
2019-03-09T07:50:00.779Z,24.20
2019-03-09T07:51:00.725Z,24.11
2019-03-09T07:52:00.681Z,24.13
2019-03-09T07:53:00.629Z,24.16
2019-03-09T07:54:00.588Z,24.08
2019-03-09T07:55:00.544Z,24.08
2019-03-09T07:56:00.506Z,24.06
2019-03-09T07:57:00.461Z,24.01
2019-03-09T07:58:00.403Z,24.05
2019-03-09T07:59:00.370Z,23.98
2019-03-09T08:00:00.357Z,23.87
2019-03-09T08:01:00.258Z,23.99
2019-03-09T08:02:00.213Z,23.95
2019-03-09T08:03:00.176Z,23.95
2019-03-09T08:04:00.135Z,24.03
2019-03-09T08:05:00.082Z,23.96
2019-03-09T08:06:00.040Z,24.05
2019-03-09T08:06:59.999Z,24.02
2019-03-09T08:07:59.953Z,24.13
2019-03-09T08:08:59.904Z,24.17
2019-03-09T08:09:59.858Z,24.17
2019-03-09T08:10:59.813Z,24.18
2019-03-09T08:11:59.781Z,24.26
2019-03-09T08:12:59.743Z,24.20
2019-03-09T08:13:59.681Z,24.21
2019-03-09T08:14:59.645Z,24.18
2019-03-09T08:15:59.593Z,24.17
2019-03-09T08:16:59.532Z,24.17
2019-03-09T08:17:59.503Z,24.10
2019-03-09T08:18:59.450Z,24.11
2019-03-09T08:19:59.404Z,24.10
2019-03-09T08:20:59.360Z,24.02
2019-03-09T08:21:59.320Z,23.98
2019-03-09T08:22:59.287Z,24.03
2019-03-09T08:23:59.240Z,24.03
2019-03-09T08:24:59.178Z,24.11
2019-03-09T08:25:59.153Z,24.05
2019-03-09T08:26:59.104Z,24.10
2019-03-09T08:27:59.052Z,24.10
2019-03-09T08:28:59.025Z,24.08
2019-03-09T08:29:58.971Z,24.08
2019-03-09T08:30:58.911Z,24.03
2019-03-09T08:31:58.866Z,23.96
2019-03-09T08:32:58.809Z,23.98
2019-03-09T08:33:58.762Z,23.96
2019-03-09T08:34:58.719Z,24.01
2019-03-09T08:35:58.682Z,23.96
2019-03-09T08:36:58.658Z,23.87
2019-03-09T08:37:58.593Z,23.92
2019-03-09T08:38:58.555Z,23.91
2019-03-09T08:39:58.495Z,23.98
2019-03-09T08:40:58.457Z,23.96
2019-03-09T08:41:58.420Z,23.96
2019-03-09T08:42:58.370Z,23.95
2019-03-09T08:43:58.329Z,23.84
2019-03-09T08:44:58.305Z,23.88
2019-03-09T08:45:58.244Z,23.86
2019-03-09T08:46:58.213Z,23.86
2019-03-09T08:47:58.139Z,23.88
2019-03-09T08:49:00.007Z,23.88
2019-03-09T08:49:58.037Z,23.98
2019-03-09T08:50:58.021Z,24.02
2019-03-09T08:51:58.013Z,23.91
2019-03-09T08:52:57.951Z,23.92
2019-03-09T08:53:57.867Z,23.98
2019-03-09T08:54:57.821Z,24.05
2019-03-09T08:55:57.824Z,24.05
2019-03-09T08:56:57.727Z,24.08
2019-03-09T08:57:57.686Z,24.03
2019-03-09T08:58:57.629Z,24.08
2019-03-09T08:59:57.605Z,24.03
2019-03-09T09:00:57.555Z,23.99
2019-03-09T09:01:57.532Z,23.99
2019-03-09T09:02:57.454Z,23.99
2019-03-09T09:03:57.400Z,23.96
2019-03-09T09:04:57.370Z,24.06
2019-03-09T09:05:57.309Z,24.08
2019-03-09T09:06:57.277Z,24.08
2019-03-09T09:07:57.228Z,24.01
2019-03-09T09:08:57.175Z,23.98
2019-03-09T09:09:57.139Z,23.99
2019-03-09T09:10:57.124Z,23.95
2019-03-09T09:11:57.058Z,23.92
2019-03-09T09:12:57.000Z,23.86
2019-03-09T09:13:56.967Z,23.91
2019-03-09T09:14:56.922Z,23.96
2019-03-09T09:15:56.858Z,23.92
2019-03-09T09:16:56.810Z,23.81
2019-03-09T09:17:56.791Z,23.83
2019-03-09T09:18:56.719Z,23.84
2019-03-09T09:19:56.687Z,23.96
2019-03-09T09:20:56.641Z,23.88
2019-03-09T09:21:56.591Z,24.06
2019-03-09T09:22:56.542Z,23.92
2019-03-09T09:23:56.506Z,23.92
2019-03-09T09:24:56.447Z,24.01
2019-03-09T09:25:56.423Z,23.99
2019-03-09T09:26:56.379Z,23.95
2019-03-09T09:27:56.333Z,24.03
2019-03-09T09:28:56.287Z,24.06
2019-03-09T09:29:56.222Z,24.14
2019-03-09T09:30:56.189Z,24.10
2019-03-09T09:31:56.138Z,24.11
2019-03-09T09:32:56.097Z,24.18
2019-03-09T09:33:58.290Z,24.18
2019-03-09T09:34:55.994Z,24.26
2019-03-09T09:35:55.958Z,24.24
2019-03-09T09:36:55.927Z,24.16
2019-03-09T09:37:55.879Z,24.29
2019-03-09T09:38:55.826Z,24.32
2019-03-09T09:39:55.768Z,24.35
2019-03-09T09:40:55.731Z,24.39
2019-03-09T09:41:55.678Z,24.57
2019-03-09T09:42:55.643Z,24.73
2019-03-09T09:43:55.610Z,24.91
2019-03-09T09:44:55.543Z,25.21
2019-03-09T09:45:55.507Z,25.53
2019-03-09T09:46:55.454Z,25.84
2019-03-09T09:47:55.432Z,26.18
2019-03-09T09:48:55.366Z,26.48
2019-03-09T09:49:55.344Z,26.85
2019-03-09T09:50:55.304Z,27.05
2019-03-09T09:51:55.235Z,27.39
2019-03-09T09:52:55.207Z,27.74
2019-03-09T09:53:55.152Z,28.01
2019-03-09T09:54:55.108Z,28.11
2019-03-09T09:55:55.081Z,28.29
2019-03-09T09:56:55.046Z,28.56
2019-03-09T09:57:54.983Z,28.67
2019-03-09T09:58:54.942Z,28.85
2019-03-09T09:59:54.910Z,28.89
2019-03-09T10:00:54.871Z,29.02
2019-03-09T10:01:54.842Z,29.23
2019-03-09T10:02:54.793Z,29.36
2019-03-09T10:03:54.758Z,29.59
2019-03-09T10:04:54.715Z,29.78
2019-03-09T10:05:54.662Z,29.82
2019-03-09T10:06:54.638Z,29.84
2019-03-09T10:07:54.610Z,29.86
2019-03-09T10:08:54.554Z,29.76
2019-03-09T10:09:54.515Z,29.66
2019-03-09T10:10:54.490Z,29.63
2019-03-09T10:11:54.438Z,29.59
2019-03-09T10:12:55.903Z,29.39
2019-03-09T10:13:54.351Z,29.27
2019-03-09T10:14:54.319Z,29.05
2019-03-09T10:15:54.293Z,29.01
2019-03-09T10:16:54.253Z,28.88
2019-03-09T10:17:54.214Z,28.75
2019-03-09T10:18:54.164Z,28.62
2019-03-09T10:19:54.120Z,28.44
2019-03-09T10:20:54.079Z,28.35
2019-03-09T10:21:54.030Z,28.20
2019-03-09T10:23:03.617Z,28.15
2019-03-09T10:23:53.962Z,27.96
2019-03-09T10:24:53.932Z,27.90
2019-03-09T10:25:53.887Z,27.82
2019-03-09T10:26:53.833Z,27.77
2019-03-09T10:27:53.806Z,27.75
2019-03-09T10:28:53.754Z,27.75
2019-03-09T10:29:53.711Z,27.60
2019-03-09T10:30:53.667Z,27.55
2019-03-09T10:31:53.614Z,27.59
2019-03-09T10:32:53.587Z,27.51
2019-03-09T10:33:53.549Z,27.59
2019-03-09T10:34:53.488Z,27.45
2019-03-09T10:35:53.446Z,27.47
2019-03-09T10:36:53.427Z,27.39
2019-03-09T10:37:53.384Z,27.60
2019-03-09T10:38:53.321Z,27.95
2019-03-09T10:39:53.285Z,28.02
2019-03-09T10:40:53.261Z,28.11
2019-03-09T10:41:53.208Z,28.37
2019-03-09T10:42:53.163Z,28.64
2019-03-09T10:43:53.109Z,28.85
2019-03-09T10:44:53.068Z,28.82
2019-03-09T10:45:53.048Z,28.75
2019-03-09T10:46:53.010Z,28.72
2019-03-09T10:47:52.945Z,28.49
2019-03-09T10:48:52.913Z,28.39
2019-03-09T10:49:52.864Z,28.29
2019-03-09T10:50:52.822Z,28.15
2019-03-09T10:51:52.781Z,27.98
2019-03-09T10:52:52.762Z,27.98
2019-03-09T10:53:52.708Z,27.78
2019-03-09T10:54:52.685Z,27.73
2019-03-09T10:55:52.630Z,27.60
2019-03-09T10:56:52.575Z,27.58
2019-03-09T10:57:52.542Z,27.45
2019-03-09T10:58:52.514Z,27.45
2019-03-09T10:59:52.462Z,27.45
2019-03-09T11:00:52.421Z,27.51
2019-03-09T11:01:52.365Z,27.45
2019-03-09T11:02:52.343Z,27.55
2019-03-09T11:03:52.302Z,27.60
2019-03-09T11:04:52.260Z,27.65
2019-03-09T11:05:52.210Z,27.60
2019-03-09T11:06:52.154Z,27.59
2019-03-09T11:07:52.135Z,27.59
2019-03-09T11:08:52.077Z,27.58
2019-03-09T11:09:52.027Z,27.77
2019-03-09T11:10:51.997Z,27.87
2019-03-09T11:11:51.941Z,28.01
2019-03-09T11:12:51.911Z,27.98
2019-03-09T11:13:52.354Z,28.01
2019-03-09T11:14:51.822Z,28.02
2019-03-09T11:15:51.771Z,28.10
2019-03-09T11:16:51.728Z,28.12
2019-03-09T11:17:51.687Z,28.19
2019-03-09T11:18:51.654Z,28.25
2019-03-09T11:19:51.601Z,28.19
2019-03-09T11:20:51.566Z,28.20
2019-03-09T11:21:51.540Z,28.15
2019-03-09T11:22:51.474Z,28.14
2019-03-09T11:23:51.512Z,28.26
2019-03-09T11:24:51.411Z,28.30
2019-03-09T11:25:51.349Z,28.35
2019-03-09T11:26:51.325Z,28.38
2019-03-09T11:27:51.275Z,28.35
2019-03-09T11:28:51.240Z,28.38
2019-03-09T11:29:51.189Z,28.32
2019-03-09T11:30:51.144Z,28.42
2019-03-09T11:31:51.101Z,28.49
2019-03-09T11:32:51.058Z,28.60
2019-03-09T11:33:51.016Z,28.86
2019-03-09T11:34:50.966Z,28.81
2019-03-09T11:35:50.943Z,28.93
2019-03-09T11:36:50.894Z,28.89
2019-03-09T11:37:50.860Z,28.78
2019-03-09T11:38:50.807Z,28.79
2019-03-09T11:39:50.768Z,28.82
2019-03-09T11:40:57.381Z,28.89
2019-03-09T11:41:50.682Z,28.91
2019-03-09T11:42:50.628Z,28.94
2019-03-09T11:43:50.585Z,28.93
2019-03-09T11:44:50.555Z,28.89
2019-03-09T11:45:50.522Z,28.89
2019-03-09T11:46:50.469Z,28.89
2019-03-09T11:47:50.416Z,28.88
2019-03-09T11:48:50.393Z,28.84
2019-03-09T11:49:50.331Z,28.93
2019-03-09T11:50:50.302Z,28.96
2019-03-09T11:51:50.257Z,28.91
2019-03-09T11:52:50.213Z,28.93
2019-03-09T11:53:50.183Z,28.89
2019-03-09T11:54:50.133Z,28.88
2019-03-09T11:55:50.078Z,28.86
2019-03-09T11:56:50.057Z,28.81
2019-03-09T11:57:50.001Z,28.82
2019-03-09T11:58:49.965Z,28.86
2019-03-09T11:59:49.921Z,28.81
2019-03-09T12:00:49.881Z,28.81
2019-03-09T12:01:49.846Z,28.78
2019-03-09T12:02:49.790Z,28.75
2019-03-09T12:03:49.766Z,28.75
2019-03-09T12:04:49.697Z,28.75
2019-03-09T12:05:49.679Z,28.72
2019-03-09T12:06:49.628Z,28.72
2019-03-09T12:07:49.582Z,28.76
2019-03-09T12:08:49.549Z,28.78
2019-03-09T12:09:49.498Z,28.74
2019-03-09T12:10:49.443Z,28.81
2019-03-09T12:11:50.758Z,28.75
2019-03-09T12:12:49.373Z,28.70
2019-03-09T12:13:49.336Z,28.74
2019-03-09T12:14:49.285Z,28.57
2019-03-09T12:15:49.251Z,28.63
2019-03-09T12:16:49.213Z,28.56
2019-03-09T12:17:50.697Z,28.59
2019-03-09T12:18:49.115Z,28.63
2019-03-09T12:19:49.069Z,28.67
2019-03-09T12:20:49.030Z,28.78
2019-03-09T12:21:48.983Z,28.72
2019-03-09T12:22:48.940Z,28.85
2019-03-09T12:23:48.911Z,28.91
2019-03-09T12:24:48.869Z,29.01
2019-03-09T12:25:48.826Z,29.01
2019-03-09T12:26:48.791Z,29.07
2019-03-09T12:27:48.743Z,29.12
2019-03-09T12:28:48.682Z,29.08
2019-03-09T12:29:48.656Z,29.20
2019-03-09T12:30:48.605Z,29.17
2019-03-09T12:31:48.559Z,29.26
2019-03-09T12:32:48.516Z,29.32
2019-03-09T12:33:48.608Z,29.35
2019-03-09T12:34:48.423Z,29.42
2019-03-09T12:35:48.381Z,29.45
2019-03-09T12:36:48.347Z,29.42
2019-03-09T12:37:48.311Z,29.39
2019-03-09T12:38:48.263Z,29.36
2019-03-09T12:39:48.221Z,29.42
2019-03-09T12:40:48.170Z,29.57
2019-03-09T12:41:48.137Z,29.51
2019-03-09T12:42:48.086Z,29.69
2019-03-09T12:43:48.057Z,29.76
2019-03-09T12:44:48.002Z,29.93
2019-03-09T12:45:47.960Z,29.97
2019-03-09T12:46:47.927Z,30.06
2019-03-09T12:47:47.898Z,30.06
2019-03-09T12:48:47.850Z,30.10
2019-03-09T12:49:47.803Z,30.31
2019-03-09T12:50:47.751Z,30.44
2019-03-09T12:51:47.720Z,30.55